createdAt,value
2022-10-09T00:01:15.078Z,21.06
2022-10-09T00:03:47.416Z,21.06
2022-10-09T00:06:21.202Z,21.01
2022-10-09T00:08:52.604Z,20.97
2022-10-09T00:11:26.464Z,20.94
2022-10-09T00:13:57.869Z,20.87
2022-10-09T00:16:28.939Z,20.88
2022-10-09T00:19:00.245Z,20.88
2022-10-09T00:21:34.001Z,20.85
2022-10-09T00:24:06.547Z,20.63
2022-10-09T00:26:37.159Z,20.53
2022-10-09T00:29:07.850Z,20.60
2022-10-09T00:31:38.221Z,20.39
2022-10-09T00:34:09.258Z,20.32
2022-10-09T00:36:39.767Z,20.40
2022-10-09T00:39:10.464Z,20.40
2022-10-09T00:41:40.839Z,20.34
2022-10-09T00:44:47.882Z,20.34
2022-10-09T00:47:24.099Z,20.29
2022-10-09T00:49:58.663Z,20.22
2022-10-09T00:52:29.371Z,20.13
2022-10-09T00:55:01.470Z,20.05
2022-10-09T00:57:34.370Z,19.95
2022-10-09T01:00:09.730Z,19.96
2022-10-09T01:02:40.641Z,20.00
2022-10-09T01:05:12.514Z,20.03
2022-10-09T01:07:59.105Z,19.97
2022-10-09T01:10:49.073Z,19.92
2022-10-09T01:13:27.412Z,19.86
2022-10-09T01:16:08.029Z,19.85
2022-10-09T01:19:22.413Z,19.82
2022-10-09T01:22:11.078Z,19.75
2022-10-09T01:25:00.211Z,19.66
2022-10-09T01:27:31.333Z,19.55
2022-10-09T01:30:10.425Z,19.57
2022-10-09T01:32:45.610Z,19.59
2022-10-09T01:35:17.352Z,19.61
2022-10-09T01:37:49.568Z,19.54
2022-10-09T01:40:21.208Z,19.52
2022-10-09T01:42:51.877Z,19.47
2022-10-09T01:45:22.490Z,19.50
2022-10-09T01:47:52.891Z,19.44
2022-10-09T01:50:33.038Z,19.54
2022-10-09T01:53:11.740Z,19.59
2022-10-09T01:56:09.476Z,19.52
2022-10-09T01:58:50.633Z,19.45
2022-10-09T02:01:28.439Z,19.48
2022-10-09T02:04:02.018Z,19.44
2022-10-09T02:06:33.892Z,19.44
2022-10-09T02:09:05.915Z,19.41
2022-10-09T02:11:39.558Z,19.30
2022-10-09T02:14:10.511Z,19.31
2022-10-09T02:16:50.186Z,19.28
2022-10-09T02:19:40.476Z,19.25
2022-10-09T02:22:32.347Z,19.30
2022-10-09T02:25:06.647Z,19.31
2022-10-09T02:27:37.925Z,19.25
2022-10-09T02:30:10.773Z,19.25
2022-10-09T02:32:41.290Z,19.32
2022-10-09T02:35:11.927Z,19.27
2022-10-09T02:37:42.323Z,19.10
2022-10-09T02:40:13.689Z,19.08
2022-10-09T02:42:44.052Z,19.00
2022-10-09T02:45:14.003Z,19.06
2022-10-09T02:47:44.201Z,19.03
2022-10-09T02:50:14.136Z,19.03
2022-10-09T02:52:44.508Z,19.03
2022-10-09T02:55:15.149Z,19.00
2022-10-09T02:57:45.772Z,18.97
2022-10-09T03:00:15.801Z,18.96
2022-10-09T03:02:46.177Z,18.93
2022-10-09T03:05:17.068Z,18.89
2022-10-09T03:07:52.666Z,18.90
2022-10-09T03:10:23.473Z,18.92
2022-10-09T03:12:54.074Z,18.94
2022-10-09T03:15:24.726Z,18.96
2022-10-09T03:17:55.115Z,18.93
2022-10-09T03:20:25.728Z,18.94
2022-10-09T03:22:57.418Z,18.93
2022-10-09T03:25:28.024Z,18.96
2022-10-09T03:27:58.333Z,18.89
2022-10-09T03:30:28.923Z,18.84
2022-10-09T03:32:59.408Z,18.83
2022-10-09T03:35:29.758Z,18.96
2022-10-09T03:37:59.687Z,18.97
2022-10-09T03:40:30.225Z,18.77
2022-10-09T03:43:00.797Z,18.82
2022-10-09T03:45:31.080Z,18.96
2022-10-09T03:48:01.593Z,19.03
2022-10-09T03:50:32.183Z,18.93
2022-10-09T03:53:02.649Z,19.00
2022-10-09T03:55:32.343Z,19.04
2022-10-09T03:58:02.732Z,19.04
2022-10-09T04:00:34.061Z,18.89
2022-10-09T04:03:05.389Z,18.84
2022-10-09T04:05:37.379Z,18.90
2022-10-09T04:08:07.920Z,19.03
2022-10-09T04:10:38.393Z,18.94
2022-10-09T04:13:08.903Z,18.97
2022-10-09T04:15:39.522Z,19.00
2022-10-09T04:18:09.980Z,19.03
2022-10-09T04:20:40.631Z,18.83
2022-10-09T04:23:10.938Z,18.67
2022-10-09T04:25:41.021Z,19.25
2022-10-09T04:28:11.238Z,19.81
2022-10-09T04:30:41.296Z,19.45
2022-10-09T04:33:13.125Z,19.17
2022-10-09T04:35:48.595Z,18.92
2022-10-09T04:38:18.995Z,18.77
2022-10-09T04:40:59.063Z,18.56
2022-10-09T04:43:30.007Z,18.36
2022-10-09T04:46:00.705Z,18.25
2022-10-09T04:48:31.196Z,18.15
2022-10-09T04:51:01.718Z,18.08
2022-10-09T04:53:32.109Z,17.97
2022-10-09T04:56:04.547Z,17.87
2022-10-09T04:58:37.689Z,17.78
2022-10-09T05:01:27.914Z,17.74
2022-10-09T05:03:58.626Z,17.73
2022-10-09T05:06:29.248Z,17.71
2022-10-09T05:08:59.661Z,17.71
2022-10-09T05:11:29.751Z,17.60
2022-10-09T05:14:00.455Z,17.34
2022-10-09T05:16:40.779Z,17.20
2022-10-09T05:19:23.395Z,16.93
2022-10-09T05:21:53.691Z,16.61
2022-10-09T05:24:24.286Z,16.55
2022-10-09T05:26:54.778Z,16.47
2022-10-09T05:29:25.057Z,16.40
2022-10-09T05:31:55.067Z,16.35
2022-10-09T05:34:25.461Z,16.30
2022-10-09T05:36:55.350Z,16.31
2022-10-09T05:39:25.639Z,16.25
2022-10-09T05:41:56.040Z,16.20
2022-10-09T05:44:26.677Z,16.16
2022-10-09T05:46:56.758Z,16.08
2022-10-09T05:49:26.974Z,16.10
2022-10-09T05:51:57.530Z,15.99
2022-10-09T05:54:28.626Z,15.96
2022-10-09T05:56:59.033Z,15.85
2022-10-09T05:59:29.541Z,15.80
2022-10-09T06:02:00.522Z,15.74
2022-10-09T06:04:31.183Z,15.66
2022-10-09T06:07:00.898Z,15.56
2022-10-09T06:09:31.314Z,15.50
2022-10-09T06:12:01.521Z,15.35
2022-10-09T06:14:31.932Z,15.24
2022-10-09T06:17:03.079Z,15.24
2022-10-09T06:19:33.347Z,15.25
2022-10-09T06:22:03.800Z,15.31
2022-10-09T06:24:33.780Z,15.19
2022-10-09T06:27:04.016Z,15.09
2022-10-09T06:29:34.497Z,14.98
2022-10-09T06:32:04.995Z,14.76
2022-10-09T06:34:34.878Z,14.68
2022-10-09T06:37:05.066Z,14.64
2022-10-09T06:39:34.991Z,14.61
2022-10-09T06:42:05.950Z,14.66
2022-10-09T06:44:53.395Z,14.54
2022-10-09T06:47:23.332Z,14.57
2022-10-09T06:49:53.635Z,14.63
2022-10-09T06:52:24.156Z,14.64
2022-10-09T06:54:54.003Z,14.70
2022-10-09T06:57:24.050Z,14.64
2022-10-09T06:59:54.534Z,14.61
2022-10-09T07:02:24.532Z,14.60
2022-10-09T07:04:54.752Z,14.66
2022-10-09T07:07:25.219Z,14.64
2022-10-09T07:09:55.783Z,14.59
2022-10-09T07:12:26.175Z,14.59
2022-10-09T07:14:56.808Z,14.50
2022-10-09T07:17:28.870Z,14.48
2022-10-09T07:19:59.302Z,14.50
2022-10-09T07:22:29.514Z,14.44
2022-10-09T07:24:59.943Z,14.43
2022-10-09T07:27:30.363Z,14.40
2022-10-09T07:30:02.092Z,14.37
2022-10-09T07:32:32.425Z,14.47
2022-10-09T07:35:02.729Z,14.30
2022-10-09T07:37:33.224Z,13.95
2022-10-09T07:40:03.005Z,13.81
2022-10-09T07:42:33.465Z,13.68
2022-10-09T07:45:03.887Z,13.68
2022-10-09T07:47:33.912Z,13.66
2022-10-09T07:50:04.068Z,13.79
2022-10-09T07:52:34.427Z,13.82
2022-10-09T07:55:04.815Z,13.83
2022-10-09T07:57:35.269Z,13.75
2022-10-09T08:00:05.527Z,13.71
2022-10-09T08:02:41.919Z,13.83
2022-10-09T08:05:12.119Z,13.88
2022-10-09T08:07:42.295Z,13.99
2022-10-09T08:10:12.215Z,13.96
2022-10-09T08:12:42.549Z,13.99
2022-10-09T08:15:14.423Z,14.08
2022-10-09T08:17:44.868Z,14.08
2022-10-09T08:20:14.747Z,14.02
2022-10-09T08:22:44.739Z,13.98
2022-10-09T08:25:15.170Z,13.98
2022-10-09T08:27:45.581Z,13.94
2022-10-09T08:30:15.919Z,13.92
2022-10-09T08:32:46.663Z,13.96
2022-10-09T08:35:17.388Z,14.02
2022-10-09T08:37:47.199Z,13.96
2022-10-09T08:40:23.357Z,13.95
2022-10-09T08:43:02.127Z,14.02
2022-10-09T08:45:34.306Z,14.06
2022-10-09T08:48:17.876Z,14.06
2022-10-09T08:50:54.910Z,13.95
2022-10-09T08:53:36.073Z,13.98
2022-10-09T08:56:11.615Z,13.98
2022-10-09T08:58:44.610Z,14.04
2022-10-09T09:01:39.296Z,13.96
2022-10-09T09:04:33.880Z,13.96
2022-10-09T09:07:14.576Z,13.98
2022-10-09T09:09:50.838Z,13.98
2022-10-09T09:13:04.986Z,13.92
2022-10-09T09:15:57.537Z,13.90
2022-10-09T09:18:44.789Z,14.02
2022-10-09T09:21:17.954Z,14.04
2022-10-09T09:23:50.158Z,14.06
2022-10-09T09:26:25.006Z,14.12
2022-10-09T09:29:03.118Z,14.23
2022-10-09T09:31:38.651Z,14.48
2022-10-09T09:34:20.876Z,14.44
2022-10-09T09:36:58.658Z,14.57
2022-10-09T09:40:30.995Z,14.70
2022-10-09T09:42:25.512Z,14.57
2022-10-09T09:44:58.396Z,14.50
2022-10-09T09:47:37.944Z,14.44
2022-10-09T09:50:23.455Z,14.41
2022-10-09T09:53:02.881Z,14.33
2022-10-09T09:55:35.647Z,14.17
2022-10-09T09:58:09.799Z,14.13
2022-10-09T10:00:40.256Z,14.17
2022-10-09T10:03:14.741Z,14.17
2022-10-09T10:05:47.001Z,14.34
2022-10-09T10:08:17.477Z,14.15
2022-10-09T10:10:49.341Z,14.09
2022-10-09T10:13:23.293Z,14.06
2022-10-09T10:15:57.001Z,14.20
2022-10-09T10:18:30.547Z,14.20
2022-10-09T10:21:17.966Z,14.32
2022-10-09T10:23:56.198Z,14.17
2022-10-09T10:26:47.077Z,14.12
2022-10-09T10:29:33.606Z,14.20
2022-10-09T10:32:13.312Z,14.17
2022-10-09T10:35:12.157Z,14.32
2022-10-09T10:37:51.970Z,14.59
2022-10-09T10:40:39.433Z,14.47
2022-10-09T10:43:12.416Z,14.63
2022-10-09T10:45:48.835Z,14.88
2022-10-09T10:48:49.677Z,14.83
2022-10-09T10:51:32.679Z,14.68
2022-10-09T10:54:15.103Z,14.71
2022-10-09T10:56:48.583Z,14.92
2022-10-09T10:59:37.498Z,15.01
2022-10-09T11:02:19.662Z,15.58
2022-10-09T11:05:16.192Z,16.06
2022-10-09T11:08:08.210Z,15.62
2022-10-09T11:11:13.834Z,15.67
2022-10-09T11:13:57.876Z,15.85
2022-10-09T11:16:45.466Z,16.01
2022-10-09T11:19:48.100Z,16.08
2022-10-09T11:22:30.469Z,16.34
2022-10-09T11:25:15.955Z,16.64
2022-10-09T11:27:52.090Z,16.51
2022-10-09T11:30:22.890Z,16.48
2022-10-09T11:32:56.000Z,16.69
2022-10-09T11:35:30.337Z,16.65
2022-10-09T11:38:17.347Z,16.22
2022-10-09T11:40:48.049Z,15.79
2022-10-09T11:43:27.419Z,15.55
2022-10-09T11:46:20.083Z,15.39
2022-10-09T11:48:56.184Z,15.29
2022-10-09T11:51:36.660Z,15.17
2022-10-09T11:54:12.089Z,15.05
2022-10-09T11:56:57.619Z,15.02
2022-10-09T11:59:39.104Z,15.04
2022-10-09T12:02:26.748Z,15.12
2022-10-09T12:04:58.094Z,15.21
2022-10-09T12:10:35.107Z,15.42
2022-10-09T12:13:09.710Z,15.43
2022-10-09T12:15:52.217Z,15.36
2022-10-09T12:18:27.657Z,15.34
2022-10-09T12:21:00.844Z,15.29
2022-10-09T12:23:35.321Z,15.31
2022-10-09T12:26:06.350Z,15.14
2022-10-09T12:29:06.517Z,14.94
2022-10-09T12:31:43.400Z,14.85
2022-10-09T12:34:36.006Z,14.97
2022-10-09T12:37:34.068Z,15.19
2022-10-09T12:40:22.923Z,15.28
2022-10-09T12:42:55.272Z,15.15
2022-10-09T12:45:31.886Z,15.25
2022-10-09T12:48:12.249Z,15.17
2022-10-09T12:50:43.286Z,15.18
2022-10-09T12:53:33.885Z,15.31
2022-10-09T12:56:05.241Z,15.18
2022-10-09T12:58:42.556Z,15.09
2022-10-09T13:01:18.701Z,15.02
2022-10-09T13:03:59.955Z,14.88
2022-10-09T13:06:49.341Z,14.73
2022-10-09T13:09:36.302Z,14.64
2022-10-09T13:12:39.331Z,14.60
2022-10-09T13:15:31.601Z,14.63
2022-10-09T13:18:02.491Z,14.63
2022-10-09T13:20:34.507Z,14.66
2022-10-09T13:23:07.759Z,14.64
2022-10-09T13:25:44.706Z,14.73
2022-10-09T13:28:21.928Z,14.54
2022-10-09T13:30:52.836Z,14.51
2022-10-09T13:33:23.536Z,14.44
2022-10-09T13:35:54.254Z,14.53
2022-10-09T13:38:25.259Z,14.53
2022-10-09T13:40:56.197Z,14.64
2022-10-09T13:43:28.701Z,14.77
2022-10-09T13:45:59.890Z,14.78
2022-10-09T13:48:32.521Z,14.83
2022-10-09T13:51:02.947Z,15.05
2022-10-09T13:53:33.993Z,15.05
2022-10-09T13:56:04.514Z,15.19
2022-10-09T13:58:34.784Z,15.17
2022-10-09T14:01:05.250Z,15.09
2022-10-09T14:03:35.707Z,15.18
2022-10-09T14:06:06.050Z,15.08
2022-10-09T14:08:35.897Z,14.97
2022-10-09T14:11:06.211Z,14.91
2022-10-09T14:13:36.712Z,14.84
2022-10-09T14:16:07.578Z,15.09
2022-10-09T14:18:37.912Z,14.84
2022-10-09T14:21:15.867Z,14.54
2022-10-09T14:23:46.600Z,14.61
2022-10-09T14:26:17.062Z,14.41
2022-10-09T14:28:47.053Z,14.33
2022-10-09T14:31:20.844Z,14.51
2022-10-09T14:33:51.745Z,14.38
2022-10-09T14:36:22.270Z,14.25
2022-10-09T14:38:52.886Z,14.22
2022-10-09T14:41:22.895Z,14.05
2022-10-09T14:43:59.076Z,14.16
2022-10-09T14:46:31.478Z,14.19
2022-10-09T14:49:08.509Z,14.04
2022-10-09T14:51:41.162Z,13.94
2022-10-09T14:54:13.744Z,14.02
2022-10-09T14:56:44.190Z,14.22
2022-10-09T14:59:15.794Z,14.47
2022-10-09T15:01:46.260Z,14.63
2022-10-09T15:04:17.432Z,15.18
2022-10-09T15:06:47.967Z,15.42
2022-10-09T15:09:18.290Z,15.77
2022-10-09T15:11:48.934Z,15.65
2022-10-09T15:14:19.699Z,16.04
2022-10-09T15:16:50.779Z,15.94
2022-10-09T15:19:21.240Z,16.11
2022-10-09T15:21:51.710Z,15.86
2022-10-09T15:24:22.025Z,15.53
2022-10-09T15:26:52.392Z,15.66
2022-10-09T15:29:22.890Z,15.70
2022-10-09T15:31:53.339Z,15.69
2022-10-09T15:34:23.942Z,15.43
2022-10-09T15:36:54.482Z,15.48
2022-10-09T15:39:25.015Z,15.59
2022-10-09T15:41:55.399Z,15.79
2022-10-09T15:44:25.385Z,15.96
2022-10-09T15:46:56.073Z,15.56
2022-10-09T15:49:26.630Z,15.56
2022-10-09T15:51:57.026Z,15.76
2022-10-09T15:54:29.330Z,16.27
2022-10-09T15:56:59.704Z,16.62
2022-10-09T15:59:32.045Z,16.92
2022-10-09T16:02:02.670Z,16.48
2022-10-09T16:04:33.195Z,16.22
2022-10-09T16:07:03.274Z,16.11
2022-10-09T16:09:38.242Z,15.69
2022-10-09T16:12:08.710Z,15.22
2022-10-09T16:14:39.980Z,15.27
2022-10-09T16:17:11.481Z,15.43
2022-10-09T16:20:02.407Z,15.25
2022-10-09T16:22:32.943Z,15.12
2022-10-09T16:25:05.444Z,14.97
2022-10-09T16:27:36.283Z,14.97
2022-10-09T16:30:07.414Z,15.02
2022-10-09T16:32:37.810Z,14.83
2022-10-09T16:35:08.845Z,14.73
2022-10-09T16:37:39.173Z,14.80
2022-10-09T16:40:10.016Z,14.97
2022-10-09T16:42:40.534Z,14.99
2022-10-09T16:45:11.731Z,15.17
2022-10-09T16:47:44.134Z,15.48
2022-10-09T16:50:14.818Z,16.07
2022-10-09T16:52:45.493Z,16.88
2022-10-09T16:55:19.086Z,17.13
2022-10-09T16:57:49.997Z,17.18
2022-10-09T17:00:21.266Z,17.19
2022-10-09T17:02:52.193Z,17.71
2022-10-09T17:05:22.759Z,18.36
2022-10-09T17:07:53.292Z,17.94
2022-10-09T17:10:23.918Z,18.18
2022-10-09T17:12:54.407Z,17.87
2022-10-09T17:15:24.749Z,18.15
2022-10-09T17:17:55.246Z,18.38
2022-10-09T17:20:25.693Z,17.80
2022-10-09T17:22:55.838Z,17.74
2022-10-09T17:25:26.141Z,17.44
2022-10-09T17:27:57.514Z,17.34
2022-10-09T17:30:28.751Z,17.12
2022-10-09T17:32:59.674Z,16.95
2022-10-09T17:35:30.185Z,16.79
2022-10-09T17:38:00.608Z,16.75
2022-10-09T17:40:30.504Z,16.48
2022-10-09T17:43:00.621Z,16.55
2022-10-09T17:45:30.559Z,16.42
2022-10-09T17:48:00.778Z,16.24
2022-10-09T17:50:31.571Z,16.13
2022-10-09T17:53:02.566Z,15.89
2022-10-09T17:55:33.416Z,15.71
2022-10-09T17:58:03.846Z,15.77
2022-10-09T18:00:34.929Z,16.01
2022-10-09T18:03:05.886Z,16.62
2022-10-09T18:05:43.160Z,16.71
2022-10-09T18:08:14.779Z,17.02
2022-10-09T18:10:45.833Z,16.81
2022-10-09T18:13:16.480Z,16.69
2022-10-09T18:15:46.905Z,16.67
2022-10-09T18:18:16.899Z,17.13
2022-10-09T18:20:47.330Z,17.13
2022-10-09T18:23:22.344Z,17.26
2022-10-09T18:25:53.374Z,17.59
2022-10-09T18:28:24.016Z,17.23
2022-10-09T18:30:54.997Z,17.09
2022-10-09T18:33:25.550Z,17.18
2022-10-09T18:35:56.059Z,17.31
2022-10-09T18:38:25.912Z,17.85
2022-10-09T18:40:56.207Z,17.77
2022-10-09T18:43:26.558Z,17.94
2022-10-09T18:45:57.674Z,18.02
2022-10-09T18:48:29.996Z,17.30
2022-10-09T18:51:01.047Z,17.20
2022-10-09T18:53:33.107Z,17.15
2022-10-09T18:56:04.320Z,17.24
2022-10-09T18:58:36.637Z,17.26
2022-10-09T19:01:08.256Z,17.34
2022-10-09T19:03:39.076Z,17.59
2022-10-09T19:06:09.975Z,18.12
2022-10-09T19:08:40.573Z,18.25
2022-10-09T19:11:11.321Z,18.29
2022-10-09T19:13:42.666Z,18.53
2022-10-09T19:16:13.471Z,18.53
2022-10-09T19:18:44.204Z,19.87
2022-10-09T19:21:16.541Z,18.32
2022-10-09T19:23:49.889Z,18.15
2022-10-09T19:26:21.826Z,17.51
2022-10-09T19:28:52.809Z,17.67
2022-10-09T19:31:23.560Z,17.71
2022-10-09T19:33:54.088Z,17.30
2022-10-09T19:36:24.738Z,17.47
2022-10-09T19:38:56.281Z,17.23
2022-10-09T19:41:26.794Z,17.16
2022-10-09T19:43:56.886Z,17.53
2022-10-09T19:46:27.812Z,17.78
2022-10-09T19:48:58.793Z,17.78
2022-10-09T19:51:29.761Z,17.85
2022-10-09T19:54:00.530Z,17.61
2022-10-09T19:56:34.475Z,17.57
2022-10-09T19:59:07.248Z,17.30
2022-10-09T20:01:39.547Z,16.92
2022-10-09T20:04:12.541Z,16.82
2022-10-09T20:06:44.423Z,16.61
2022-10-09T20:09:14.951Z,16.27
2022-10-09T20:11:45.638Z,16.14
2022-10-09T20:14:16.462Z,16.00
2022-10-09T20:16:47.041Z,15.90
2022-10-09T20:19:17.757Z,15.96
2022-10-09T20:21:48.445Z,16.08
2022-10-09T20:24:19.002Z,15.97
2022-10-09T20:26:49.728Z,16.10
2022-10-09T20:29:20.339Z,16.17
2022-10-09T20:31:51.029Z,16.47
2022-10-09T20:34:21.655Z,16.49
2022-10-09T20:36:52.113Z,17.69
2022-10-09T20:39:22.832Z,17.51
2022-10-09T20:41:53.641Z,16.89
2022-10-09T20:44:24.092Z,16.24
2022-10-09T20:46:57.979Z,15.96
2022-10-09T20:49:28.861Z,15.80
2022-10-09T20:51:59.479Z,15.60
2022-10-09T20:54:31.838Z,15.50
2022-10-09T20:57:02.506Z,15.42
2022-10-09T20:59:32.989Z,15.42
2022-10-09T21:02:03.304Z,15.45
2022-10-09T21:04:34.046Z,15.39
2022-10-09T21:07:04.587Z,15.35
2022-10-09T21:09:35.083Z,15.36
2022-10-09T21:12:05.004Z,15.45
2022-10-09T21:14:35.484Z,15.40
2022-10-09T21:17:06.017Z,15.40
2022-10-09T21:19:36.590Z,15.48
2022-10-09T21:22:07.395Z,15.48
2022-10-09T21:24:38.440Z,15.45
2022-10-09T21:27:09.097Z,15.31
2022-10-09T21:29:39.542Z,15.31
2022-10-09T21:32:09.926Z,15.25
2022-10-09T21:34:40.469Z,15.12
2022-10-09T21:37:27.586Z,15.04
2022-10-09T21:39:58.177Z,15.12
2022-10-09T21:42:28.776Z,15.12
2022-10-09T21:44:59.115Z,15.01
2022-10-09T21:47:29.317Z,15.02
2022-10-09T21:49:59.543Z,15.04
2022-10-09T21:52:29.535Z,15.09
2022-10-09T21:54:59.644Z,15.18
2022-10-09T21:57:29.672Z,15.07
2022-10-09T21:59:59.695Z,15.02
2022-10-09T22:02:30.596Z,14.98
2022-10-09T22:05:01.397Z,14.91
2022-10-09T22:07:34.850Z,14.85
2022-10-09T22:10:06.451Z,14.87
2022-10-09T22:12:37.028Z,14.83
2022-10-09T22:15:07.212Z,14.81
2022-10-09T22:17:38.131Z,14.77
2022-10-09T22:20:09.051Z,14.74
2022-10-09T22:22:39.768Z,14.70
2022-10-09T22:25:10.730Z,14.73
2022-10-09T22:27:41.135Z,14.66
2022-10-09T22:30:12.089Z,14.61
2022-10-09T22:32:42.839Z,14.57
2022-10-09T22:35:13.333Z,14.51
2022-10-09T22:37:43.361Z,14.50
2022-10-09T22:40:14.084Z,14.47
2022-10-09T22:42:44.567Z,14.41
2022-10-09T22:45:14.838Z,14.44
2022-10-09T22:47:44.793Z,14.43
2022-10-09T22:50:14.965Z,14.30
2022-10-09T22:52:45.440Z,14.29
2022-10-09T22:55:15.885Z,14.23
2022-10-09T22:57:45.910Z,14.29
2022-10-09T23:00:17.405Z,14.27
2022-10-09T23:02:48.499Z,14.32
2022-10-09T23:05:19.187Z,14.29
2022-10-09T23:07:49.693Z,14.20
2022-10-09T23:10:20.192Z,14.15
2022-10-09T23:12:50.624Z,14.16
2022-10-09T23:15:20.911Z,14.16
2022-10-09T23:17:51.414Z,14.13
2022-10-09T23:20:21.900Z,14.19
2022-10-09T23:22:52.902Z,14.13
2022-10-09T23:25:23.477Z,14.17
2022-10-09T23:27:54.084Z,14.13
2022-10-09T23:30:23.941Z,14.15
2022-10-09T23:32:54.828Z,14.12
2022-10-09T23:35:25.283Z,14.02
2022-10-09T23:37:56.261Z,14.02
2022-10-09T23:40:26.738Z,14.06
2022-10-09T23:42:56.633Z,14.05
2022-10-09T23:45:26.806Z,14.06
2022-10-09T23:47:56.768Z,14.02
2022-10-09T23:50:27.010Z,13.99
2022-10-09T23:52:57.491Z,13.90
2022-10-09T23:55:28.023Z,13.90
2022-10-09T23:57:58.765Z,13.94
